This is the latest recevied weather packets stored in our database for station/object VU3HGG-15. If no packets are shown the sender has not sent any weather packets the latest 10 day(s).
| Time | Temp. | Humidity | Pressure | Rain* | Wind** | Luminosity | Snow |
|---|---|---|---|---|---|---|---|
| 1788031163 | 26.11° C | 69% | 911.4 hPa | - | - | - | - |
| 1788030563 | 26.11° C | 69% | 911.5 hPa | - | - | - | - |
| 1788029963 | 26.11° C | 70% | 911.5 hPa | - | - | - | - |
| 1788029363 | 26.67° C | 70% | 911.6 hPa | - | - | - | - |
| 1788028763 | 26.67° C | 69% | 911.6 hPa | - | - | - | - |
| 1788028163 | 26.67° C | 70% | 911.6 hPa | - | - | - | - |
| 1788027563 | 26.11° C | 70% | 911.8 hPa | - | - | - | - |
| 1788026963 | 26.67° C | 70% | 911.8 hPa | - | - | - | - |
| 1788025763 | 26.67° C | 69% | 912 hPa | - | - | - | - |
| 1788025164 | 26.67° C | 70% | 912 hPa | - | - | - | - |
| 1788024564 | 26.11° C | 70% | 912.1 hPa | - | - | - | - |
| 1788023885 | 27.22° C | 69% | 912.1 hPa | - | - | - | - |
| 1788023806 | 26.67° C | 69% | 18.4 hPa | - | - | - | - |
| 1788023797 | 26.67° C | 69% | 912.1 hPa | - | - | - | - |
| 1788018417 | 30° C | 72% | 912.1 hPa | - | - | - | - |
| 1788017817 | 28.33° C | 68% | 911.9 hPa | - | - | - | - |
| 1788017400 | 27.22° C | 69% | 911.9 hPa | - | - | - | - |
| 1788016800 | 26.67° C | 69% | 911.7 hPa | - | - | - | - |
| 1788016200 | 26.67° C | 67% | 911.6 hPa | - | - | - | - |
| 1788015601 | 26.67° C | 68% | 911.5 hPa | - | - | - | - |
| 1788015191 | 26.67° C | 68% | 911.5 hPa | - | - | - | - |
| 1788014592 | 26.67° C | 69% | 911.3 hPa | - | - | - | - |
| 1788013991 | 27.22° C | 69% | 911.1 hPa | - | - | - | - |
| 1788013391 | 27.22° C | 68% | 911.1 hPa | - | - | - | - |
| 1788012791 | 27.78° C | 68% | 911 hPa | - | - | - | - |
* Rain since midnight (hover to see other rain measurements)
** Current wind speed in m/s (hover to see current wind gust speed)